MHTGTNCM

Guest
Details From MHTG - Tegucigalpa Toncontin Intl
To TNCM - St Maarten - Princess Juliana Intl
Flight Number -
Tags decoded
Created
Modified
Stats Distance 1,468 nm / 2,719 km
Max Altitude 0 ft / 0 m
Waypoints 5
Social Downloads 0
Likes 0
Share VATSIM

Download

Looking for another format? Having issues loading an existing format? Contact us
Advertisement - Login to hide

Notes

Requested: MHTG ANGEL R890 SWA B520 JUICE TNCM Unmatched points: R890 B520

Route

MHTG ANGEL SWA JUICE TNCM

ID Type Via Altitude Latitude Longitude Leg Dist Tot Dist Heading (true) Name
O MHTG APT - 0 ft / 0 m 14.06088˚ -87.21720˚ - 0 nm - Tegucigalpa Toncontin Intl
ANGEL FIX - 0 ft / 0 m 14.33417˚ -86.93750˚ 23 nm 23 nm 45° / 45° -
SWA NDB - 0 ft / 0 m 17.40000˚ -83.95000˚ 252 nm 275 nm 43° / 44° ISLAS DEL CISNE NDB
JUICE FIX - 0 ft / 0 m 18.13094˚ -63.66667˚ 1160 nm 1435 nm 85° / 91° -
O TNCM APT - 0 ft / 0 m 18.04089˚ -63.10897˚ 32 nm 1468 nm 100° / 100° St Maarten - Princess Juliana Intl

Altitude Profile

Advertisement - Login to hide

Weather


0- 5 10 15 20 25 30 35+ Temperature / ° C

Clouds and Precipitation
Forecast for 2017-12-14 00:00 UTC. Updated an hour ago

Ground ~20,000 ft ~40,000 ft Winds

MHTG

Details ICAO MHTG (TGU)
Name Tegucigalpa Toncontin Intl
Region Honduras
Timezone America/Tegucigalpa (UTC-6.0)
Stats Elevation 3,294 ft / 1,004 m (AMSL)
Location 14.060883° -87.217197°
Runways 1
Magnetic Variation 0.659° W

METAR

MHTG 140000Z 36016KT 9999 FEW018 BKN030 18/12 Q1020 A3012 NOSIG

Decode

TAF

Not found

Departure Runways

ID Width Length Bearing (true) Bearing (mag) Surface Threshold Offset Overrun Length
02 148 ft / 45 m 6,140 ft / 1,872 m 18.87° 19.53° Asphalt 670 ft / 204 m 100 ft / 30 m
20 148 ft / 45 m 6,140 ft / 1,872 m 198.87° 199.53° Asphalt 0 ft / 0 m 200 ft / 61 m

TNCM

Details ICAO TNCM (SXM)
Name St Maarten - Princess Juliana Intl
Region Caribbean Netherlands, Aruba, Curaçao, Sint Maarten
Timezone Unknown (UTC+0.0)
Stats Elevation 12 ft / 4 m (AMSL)
Location 18.040889° -63.108974°
Runways 1
Magnetic Variation 14.325° W

METAR

TNCM 140000Z 10004KT 9999 FEW020 27/22 Q1017 A3003 NOSIG

Decode

TAF

TAF TNCM 132320Z 1400/1424 09006KT P6SM SCT022 FM141200 13012KT P6SM FEW022 FM141400 10009KT P6SM SCT020 SCT040 FM141800 08012KT P6SM SCT030

Decode

Destination Runways

ID Width Length Bearing (true) Bearing (mag) Surface Threshold Offset Overrun Length
10 148 ft / 45 m 7,464 ft / 2,275 m 81.43° 95.76° Asphalt 0 ft / 0 m 151 ft / 46 m
28 148 ft / 45 m 7,464 ft / 2,275 m 261.44° 275.77° Asphalt 397 ft / 121 m 0 ft / 0 m

Popular Alternatives